createdAt,value
2022-09-12T00:01:05.576Z,95.84
2022-09-12T00:04:14.350Z,95.94
2022-09-12T00:07:22.731Z,96.04
2022-09-12T00:10:31.000Z,95.84
2022-09-12T00:13:44.006Z,95.98
2022-09-12T00:16:52.406Z,96.39
2022-09-12T00:20:00.275Z,95.89
2022-09-12T00:23:08.945Z,95.58
2022-09-12T00:26:16.743Z,95.28
2022-09-12T00:29:25.166Z,95.37
2022-09-12T00:32:33.528Z,96.54
2022-09-12T00:35:41.331Z,97.05
2022-09-12T00:38:49.704Z,97.16
2022-09-12T00:41:57.966Z,97.56
2022-09-12T00:45:06.085Z,97.77
2022-09-12T00:48:14.670Z,97.46
2022-09-12T00:51:22.582Z,97.05
2022-09-12T00:54:31.244Z,96.75
2022-09-12T00:57:39.453Z,96.54
2022-09-12T01:00:47.894Z,96.79
2022-09-12T01:03:56.106Z,97.40
2022-09-12T01:07:04.015Z,97.81
2022-09-12T01:10:12.099Z,98.11
2022-09-12T01:13:20.318Z,98.32
2022-09-12T01:16:28.569Z,98.22
2022-09-12T01:19:36.710Z,98.11
2022-09-12T01:22:44.499Z,97.71
2022-09-12T01:25:53.048Z,97.00
2022-09-12T01:29:00.882Z,96.69
2022-09-12T01:32:09.613Z,96.69
2022-09-12T01:35:18.162Z,96.08
2022-09-12T01:38:25.942Z,95.67
2022-09-12T01:41:34.216Z,96.02
2022-09-12T01:44:42.911Z,96.53
2022-09-12T01:47:50.733Z,96.73
2022-09-12T01:50:59.287Z,96.43
2022-09-12T01:54:07.416Z,96.53
2022-09-12T01:57:15.651Z,96.33
2022-09-12T02:00:24.048Z,95.81
2022-09-12T02:03:32.158Z,95.81
2022-09-12T02:06:40.429Z,96.22
2022-09-12T02:09:48.633Z,96.53
2022-09-12T02:12:57.292Z,96.53
2022-09-12T02:16:05.465Z,95.96
2022-09-12T02:19:13.603Z,96.37
2022-09-12T02:22:22.044Z,97.29
2022-09-12T02:25:29.824Z,97.49
2022-09-12T02:28:37.849Z,97.29
2022-09-12T02:31:46.293Z,97.08
2022-09-12T02:34:53.953Z,96.37
2022-09-12T02:38:01.781Z,95.96
2022-09-12T02:41:09.857Z,95.56
2022-09-12T02:44:17.689Z,95.04
2022-09-12T02:47:26.365Z,94.98
2022-09-12T02:50:34.070Z,95.39
2022-09-12T02:53:42.580Z,96.31
2022-09-12T02:56:51.225Z,96.92
2022-09-12T02:59:59.493Z,96.62
2022-09-12T03:03:07.769Z,96.83
2022-09-12T03:06:16.054Z,97.19
2022-09-12T03:09:24.565Z,96.21
2022-09-12T03:12:32.282Z,96.01
2022-09-12T03:15:40.216Z,95.50
2022-09-12T03:18:48.018Z,95.29
2022-09-12T03:21:56.308Z,94.98
2022-09-12T03:25:04.123Z,94.62
2022-09-12T03:28:12.238Z,95.80
2022-09-12T03:31:20.409Z,96.01
2022-09-12T03:34:29.081Z,95.90
2022-09-12T03:37:37.200Z,95.13
2022-09-12T03:40:45.401Z,95.34
2022-09-12T03:43:53.977Z,95.23
2022-09-12T03:47:01.782Z,95.34
2022-09-12T03:50:10.454Z,95.85
2022-09-12T03:53:18.613Z,96.01
2022-09-12T03:56:26.476Z,95.13
2022-09-12T03:59:34.613Z,94.26
2022-09-12T04:02:42.671Z,94.77
2022-09-12T04:05:51.004Z,95.59
2022-09-12T04:08:59.337Z,95.79
2022-09-12T04:12:06.759Z,96.41
2022-09-12T04:15:14.850Z,96.81
2022-09-12T04:18:23.007Z,96.92
2022-09-12T04:21:30.559Z,97.22
2022-09-12T04:24:39.129Z,97.22
2022-09-12T04:27:47.624Z,96.61
2022-09-12T04:30:55.600Z,96.66
2022-09-12T04:34:04.231Z,97.02
2022-09-12T04:37:12.454Z,96.92
2022-09-12T04:40:20.927Z,96.20
2022-09-12T04:43:29.124Z,96.20
2022-09-12T04:46:37.876Z,95.59
2022-09-12T04:49:46.268Z,96.10
2022-09-12T04:52:54.444Z,96.71
2022-09-12T04:56:03.286Z,96.67
2022-09-12T04:59:11.238Z,95.69
2022-09-12T05:02:20.140Z,95.59
2022-09-12T05:05:28.797Z,95.79
2022-09-12T05:08:36.670Z,95.38
2022-09-12T05:14:51.093Z,96.10
2022-09-12T05:17:58.896Z,95.59
2022-09-12T05:21:07.394Z,95.79
2022-09-12T05:24:15.423Z,95.54
2022-09-12T05:27:23.253Z,95.64
2022-09-12T05:30:31.253Z,96.05
2022-09-12T05:33:39.867Z,96.51
2022-09-12T05:36:47.889Z,96.83
2022-09-12T05:39:56.218Z,96.31
2022-09-12T05:43:04.156Z,96.72
2022-09-12T05:46:12.661Z,97.64
2022-09-12T05:49:20.102Z,98.05
2022-09-12T05:52:28.059Z,98.21
2022-09-12T05:55:35.987Z,98.36
2022-09-12T05:58:44.273Z,98.52
2022-09-12T06:01:52.222Z,98.32
2022-09-12T06:05:00.123Z,98.18
2022-09-12T06:08:08.396Z,97.97
2022-09-12T06:11:16.528Z,97.52
2022-09-12T06:14:24.527Z,97.52
2022-09-12T06:17:32.978Z,97.37
2022-09-12T06:20:40.493Z,97.06
2022-09-12T06:23:48.848Z,97.06
2022-09-12T06:26:57.262Z,96.71
2022-09-12T06:30:04.748Z,96.61
2022-09-12T06:33:13.228Z,96.41
2022-09-12T06:36:21.690Z,96.46
2022-09-12T06:39:29.243Z,96.56
2022-09-12T06:42:37.552Z,96.62
2022-09-12T06:45:45.518Z,96.47
2022-09-12T06:48:53.579Z,95.97
2022-09-12T06:52:01.932Z,95.56
2022-09-12T06:55:09.793Z,95.36
2022-09-12T06:58:17.715Z,95.36
2022-09-12T07:01:26.194Z,95.21
2022-09-12T07:04:34.390Z,95.21
2022-09-12T07:07:42.257Z,95.41
2022-09-12T07:10:50.111Z,95.37
2022-09-12T07:13:58.541Z,94.96
2022-09-12T07:17:06.662Z,95.22
2022-09-12T07:20:14.401Z,94.82
2022-09-12T07:23:22.909Z,94.67
2022-09-12T07:26:30.862Z,94.77
2022-09-12T07:29:38.759Z,94.73
2022-09-12T07:32:47.234Z,94.32
2022-09-12T07:35:54.765Z,93.46
2022-09-12T07:39:03.225Z,93.73
2022-09-12T07:42:11.500Z,93.02
2022-09-12T07:45:19.496Z,92.31
2022-09-12T07:48:28.507Z,92.36
2022-09-12T07:51:36.928Z,91.96
2022-09-12T07:54:44.643Z,92.32
2022-09-12T07:57:52.571Z,92.32
2022-09-12T08:01:00.559Z,91.37
2022-09-12T08:04:08.521Z,92.44
2022-09-12T08:07:16.674Z,90.21
2022-09-12T08:10:24.864Z,89.66
2022-09-12T08:13:32.845Z,90.37
2022-09-12T08:16:41.401Z,90.37
2022-09-12T08:19:49.456Z,90.12
2022-09-12T08:22:57.503Z,88.41
2022-09-12T08:26:06.310Z,89.28
2022-09-12T08:29:14.982Z,89.34
2022-09-12T08:32:22.952Z,89.43
2022-09-12T08:35:31.061Z,88.79
2022-09-12T08:38:39.344Z,88.75
2022-09-12T08:41:46.820Z,87.54
2022-09-12T08:44:55.343Z,85.31
2022-09-12T08:48:03.726Z,88.20
2022-09-12T08:51:11.304Z,88.40
2022-09-12T08:54:19.657Z,84.03
2022-09-12T08:57:28.099Z,83.32
2022-09-12T09:00:36.400Z,82.98
2022-09-12T09:03:44.586Z,85.90
2022-09-12T09:06:52.411Z,83.04
2022-09-12T09:10:00.449Z,84.21
2022-09-12T09:13:08.714Z,80.99
2022-09-12T09:16:16.751Z,80.25
2022-09-12T09:19:24.671Z,81.15
2022-09-12T09:22:32.686Z,78.14
2022-09-12T09:25:41.167Z,79.50
2022-09-12T09:28:48.999Z,79.91
2022-09-12T09:31:57.063Z,79.17
2022-09-12T09:35:05.549Z,78.22
2022-09-12T09:38:13.221Z,78.53
2022-09-12T09:41:21.673Z,76.38
2022-09-12T09:44:30.162Z,73.67
2022-09-12T09:47:37.620Z,77.09
2022-09-12T09:50:45.974Z,71.66
2022-09-12T09:53:53.936Z,73.94
2022-09-12T09:57:01.843Z,71.90
2022-09-12T10:00:10.246Z,71.00
2022-09-12T10:03:18.299Z,70.66
2022-09-12T10:06:26.320Z,70.86
2022-09-12T10:09:34.501Z,68.82
2022-09-12T10:12:42.533Z,70.50
2022-09-12T10:15:50.627Z,69.66
2022-09-12T10:18:58.644Z,67.93
2022-09-12T10:22:06.945Z,65.62
2022-09-12T10:25:14.820Z,64.92
2022-09-12T10:28:22.596Z,63.65
2022-09-12T10:31:30.649Z,65.45
2022-09-12T10:34:38.359Z,62.32
2022-09-12T10:37:49.386Z,63.12
2022-09-12T10:40:49.315Z,65.52
2022-09-12T10:43:57.161Z,67.49
2022-09-12T10:47:06.975Z,64.66
2022-09-12T10:50:22.625Z,64.06
2022-09-12T10:53:20.544Z,63.13
2022-09-12T10:56:28.893Z,63.43
2022-09-12T10:59:36.594Z,62.34
2022-09-12T11:02:45.031Z,61.87
2022-09-12T11:05:53.181Z,62.56
2022-09-12T11:09:01.164Z,63.86
2022-09-12T11:12:09.594Z,64.43
2022-09-12T11:15:17.440Z,64.23
2022-09-12T11:18:25.543Z,63.53
2022-09-12T11:21:33.587Z,61.10
2022-09-12T11:24:41.859Z,60.41
2022-09-12T11:27:49.479Z,63.63
2022-09-12T11:30:57.942Z,62.10
2022-09-12T11:34:06.342Z,60.58
2022-09-12T11:37:17.801Z,62.84
2022-09-12T11:40:15.588Z,60.05
2022-09-12T11:43:23.531Z,60.65
2022-09-12T11:46:31.508Z,59.52
2022-09-12T11:49:39.778Z,59.62
2022-09-12T11:52:47.790Z,61.85
2022-09-12T11:55:55.768Z,60.65
2022-09-12T11:59:03.592Z,60.15
2022-09-12T12:02:11.663Z,60.25
2022-09-12T12:05:19.544Z,61.35
2022-09-12T12:08:27.695Z,59.85
2022-09-12T12:11:36.111Z,59.32
2022-09-12T12:14:43.709Z,61.94
2022-09-12T12:17:52.160Z,60.25
2022-09-12T12:21:00.480Z,57.86
2022-09-12T12:24:08.372Z,58.48
2022-09-12T12:27:16.983Z,60.75
2022-09-12T12:30:25.054Z,57.46
2022-09-12T12:33:33.085Z,59.38
2022-09-12T12:36:41.387Z,59.78
2022-09-12T12:39:49.438Z,63.24
2022-09-12T12:42:57.506Z,57.73
2022-09-12T12:46:05.800Z,57.70
2022-09-12T12:49:13.464Z,58.10
2022-09-12T12:52:21.802Z,58.10
2022-09-12T12:55:29.978Z,56.68
2022-09-12T12:58:38.395Z,54.71
2022-09-12T13:01:45.924Z,54.91
2022-09-12T13:04:54.360Z,57.10
2022-09-12T13:08:02.355Z,56.27
2022-09-12T13:11:10.229Z,54.86
2022-09-12T13:14:18.308Z,53.46
2022-09-12T13:17:26.016Z,56.95
2022-09-12T13:20:34.604Z,55.16
2022-09-12T13:23:43.143Z,56.82
2022-09-12T13:26:50.986Z,56.42
2022-09-12T13:29:59.838Z,55.23
2022-09-12T13:33:08.639Z,54.73
2022-09-12T13:36:16.740Z,53.94
2022-09-12T13:39:25.662Z,52.07
2022-09-12T13:42:33.963Z,53.59
2022-09-12T13:45:42.601Z,54.88
2022-09-12T13:48:51.556Z,54.75
2022-09-12T13:51:59.666Z,55.23
2022-09-12T13:55:07.928Z,55.33
2022-09-12T13:58:16.590Z,57.29
2022-09-12T14:01:24.913Z,53.69
2022-09-12T14:04:33.352Z,52.99
2022-09-12T14:07:41.753Z,51.42
2022-09-12T14:10:50.123Z,53.21
2022-09-12T14:13:58.656Z,52.02
2022-09-12T14:17:06.998Z,50.82
2022-09-12T14:20:15.456Z,53.83
2022-09-12T14:23:23.864Z,52.34
2022-09-12T14:26:32.231Z,53.14
2022-09-12T14:29:40.482Z,52.00
2022-09-12T14:32:49.135Z,48.91
2022-09-12T14:35:58.505Z,49.51
2022-09-12T14:39:07.028Z,50.52
2022-09-12T14:42:15.421Z,53.11
2022-09-12T14:45:24.008Z,50.52
2022-09-12T14:48:32.077Z,51.95
2022-09-12T14:51:40.961Z,53.61
2022-09-12T14:54:49.865Z,52.62
2022-09-12T14:57:58.533Z,53.21
2022-09-12T15:01:06.992Z,50.65
2022-09-12T15:04:15.766Z,51.47
2022-09-12T15:07:23.818Z,53.69
2022-09-12T15:10:32.527Z,53.61
2022-09-12T15:13:40.779Z,54.44
2022-09-12T15:16:48.810Z,54.64
2022-09-12T15:19:57.282Z,56.13
2022-09-12T15:23:05.031Z,55.43
2022-09-12T15:26:12.893Z,55.26
2022-09-12T15:29:21.428Z,58.08
2022-09-12T15:32:29.206Z,58.81
2022-09-12T15:35:38.038Z,60.14
2022-09-12T15:38:46.548Z,61.73
2022-09-12T15:41:54.850Z,59.23
2022-09-12T15:45:03.072Z,57.84
2022-09-12T15:48:10.872Z,57.21
2022-09-12T15:51:18.488Z,59.11
2022-09-12T15:54:26.315Z,60.71
2022-09-12T15:57:34.113Z,59.11
2022-09-12T16:00:41.815Z,60.00
2022-09-12T16:03:49.608Z,59.61
2022-09-12T16:06:57.290Z,57.68
2022-09-12T16:10:05.461Z,59.28
2022-09-12T16:13:12.911Z,62.27
2022-09-12T16:16:20.987Z,59.88
2022-09-12T16:19:29.460Z,61.30
2022-09-12T16:22:36.871Z,62.13
2022-09-12T16:25:45.026Z,61.19
2022-09-12T16:28:53.249Z,63.82
2022-09-12T16:32:00.590Z,65.36
2022-09-12T16:35:08.737Z,65.16
2022-09-12T16:38:16.679Z,66.49
2022-09-12T16:41:25.022Z,66.92
2022-09-12T16:44:33.712Z,66.52
2022-09-12T16:47:42.056Z,67.55
2022-09-12T16:50:50.468Z,68.26
2022-09-12T16:53:58.176Z,68.49
2022-09-12T16:57:06.028Z,68.89
2022-09-12T17:00:14.481Z,69.32
2022-09-12T17:03:22.182Z,68.82
2022-09-12T17:06:30.802Z,69.66
2022-09-12T17:09:38.903Z,69.59
2022-09-12T17:12:46.772Z,70.19
2022-09-12T17:15:55.250Z,70.03
2022-09-12T17:19:03.184Z,71.06
2022-09-12T17:22:11.340Z,72.17
2022-09-12T17:25:19.789Z,72.47
2022-09-12T17:28:27.390Z,71.60
2022-09-12T17:31:35.573Z,71.70
2022-09-12T17:34:43.689Z,71.53
2022-09-12T17:37:51.341Z,71.73
2022-09-12T17:41:00.170Z,73.08
2022-09-12T17:44:08.657Z,72.27
2022-09-12T17:47:16.520Z,72.00
2022-09-12T17:50:31.739Z,72.64
2022-09-12T17:53:28.686Z,73.05
2022-09-12T17:56:36.791Z,73.45
2022-09-12T17:59:45.802Z,73.48
2022-09-12T18:02:54.121Z,74.19
2022-09-12T18:06:02.486Z,74.79
2022-09-12T18:09:10.675Z,73.42
2022-09-12T18:12:19.609Z,75.03
2022-09-12T18:15:27.809Z,75.13
2022-09-12T18:18:36.159Z,75.77
2022-09-12T18:21:44.398Z,76.48
2022-09-12T18:24:52.998Z,77.28
2022-09-12T18:28:02.639Z,77.59
2022-09-12T18:31:02.401Z,77.89
2022-09-12T18:34:10.437Z,78.09
2022-09-12T18:37:18.838Z,77.59
2022-09-12T18:40:27.328Z,77.19
2022-09-12T18:43:35.879Z,77.89
2022-09-12T18:46:44.609Z,78.03
2022-09-12T18:49:52.307Z,76.82
2022-09-12T18:53:00.541Z,77.02
2022-09-12T18:56:08.816Z,77.12
2022-09-12T18:59:16.326Z,77.12
2022-09-12T19:02:24.669Z,76.21
2022-09-12T19:05:32.908Z,76.21
2022-09-12T19:08:41.207Z,75.40
2022-09-12T19:11:49.702Z,76.11
2022-09-12T19:14:57.687Z,74.90
2022-09-12T19:18:05.671Z,74.19
2022-09-12T19:21:13.776Z,74.09
2022-09-12T19:24:22.256Z,74.09
2022-09-12T19:27:29.958Z,74.19
2022-09-12T19:30:40.758Z,74.09
2022-09-12T19:33:42.012Z,73.79
2022-09-12T19:36:50.338Z,73.65
2022-09-12T19:39:57.990Z,73.49
2022-09-12T19:43:05.975Z,73.69
2022-09-12T19:46:13.936Z,73.35
2022-09-12T19:49:22.452Z,73.49
2022-09-12T19:52:30.983Z,73.69
2022-09-12T19:55:38.736Z,73.79
2022-09-12T19:58:49.072Z,73.99
2022-09-12T20:01:49.580Z,74.29
2022-09-12T20:04:57.767Z,73.99
2022-09-12T20:08:06.216Z,74.13
2022-09-12T20:11:14.358Z,74.43
2022-09-12T20:14:22.539Z,74.63
2022-09-12T20:17:30.731Z,74.84
2022-09-12T20:20:38.807Z,74.93
2022-09-12T20:23:46.613Z,75.07
2022-09-12T20:26:54.534Z,75.48
2022-09-12T20:30:03.116Z,76.79
2022-09-12T20:33:11.211Z,76.52
2022-09-12T20:36:19.386Z,76.93
2022-09-12T20:39:27.885Z,77.43
2022-09-12T20:42:36.067Z,77.13
2022-09-12T20:45:43.979Z,77.13
2022-09-12T20:48:52.186Z,77.23
2022-09-12T20:51:59.810Z,77.47
2022-09-12T20:55:08.022Z,77.37
2022-09-12T20:58:16.410Z,77.57
2022-09-12T21:01:24.154Z,77.47
2022-09-12T21:04:32.604Z,77.67
2022-09-12T21:07:40.397Z,77.67
2022-09-12T21:10:48.628Z,78.01
2022-09-12T21:13:57.218Z,78.11
2022-09-12T21:17:04.888Z,78.31
2022-09-12T21:20:13.199Z,78.21
2022-09-12T21:23:21.259Z,78.11
2022-09-12T21:26:29.395Z,78.42
2022-09-12T21:29:38.182Z,78.52
2022-09-12T21:32:46.187Z,79.06
2022-09-12T21:35:54.350Z,79.46
2022-09-12T21:39:02.574Z,79.57
2022-09-12T21:42:10.776Z,79.77
2022-09-12T21:45:18.733Z,80.31
2022-09-12T21:48:26.921Z,80.52
2022-09-12T21:51:35.436Z,79.91
2022-09-12T21:54:43.196Z,79.60
2022-09-12T21:57:50.817Z,79.40
2022-09-12T22:00:59.356Z,79.20
2022-09-12T22:04:07.055Z,78.96
2022-09-12T22:07:15.672Z,78.86
2022-09-12T22:10:23.632Z,78.86
2022-09-12T22:13:31.634Z,78.89
2022-09-12T22:16:39.463Z,78.79
2022-09-12T22:19:47.532Z,78.79
2022-09-12T22:22:55.925Z,78.79
2022-09-12T22:26:04.056Z,78.79
2022-09-12T22:29:11.818Z,78.89
2022-09-12T22:32:20.378Z,78.59
2022-09-12T22:35:28.527Z,79.20
2022-09-12T22:38:36.267Z,79.40
2022-09-12T22:41:43.982Z,79.24
2022-09-12T22:44:51.985Z,79.24
2022-09-12T22:48:01.109Z,79.64
2022-09-12T22:51:09.595Z,79.44
2022-09-12T22:54:17.394Z,79.74
2022-09-12T22:57:25.546Z,80.55
2022-09-12T23:00:33.234Z,80.05
2022-09-12T23:03:41.346Z,80.29
2022-09-12T23:06:49.412Z,80.29
2022-09-12T23:09:57.610Z,80.19
2022-09-12T23:13:05.809Z,80.39
2022-09-12T23:16:14.486Z,80.39
2022-09-12T23:19:22.112Z,80.39
2022-09-12T23:22:30.852Z,80.59
2022-09-12T23:25:38.920Z,80.79
2022-09-12T23:28:46.945Z,80.83
2022-09-12T23:31:55.195Z,80.69
2022-09-12T23:35:03.310Z,80.39
2022-09-12T23:38:14.509Z,80.19
2022-09-12T23:41:11.760Z,80.49
2022-09-12T23:44:20.302Z,80.59
2022-09-12T23:47:27.851Z,80.90
2022-09-12T23:50:35.822Z,80.99
2022-09-12T23:53:44.313Z,81.50
2022-09-12T23:56:51.972Z,81.34
